Time;durP1;ratioP1;P1;durP2;ratioP2;P2;SDS_P1;SDS_P2;PMS_P1;PMS_P2;Temp;Humidity;BMP_temperature;BMP_pressure;BME280_temperature;BME280_humidity;BME280_pressure;Samples;Min_cycle;Max_cycle;Signal;HPM_P1;HPM_P2
2022/12/28 00:00:17;;;;;;;3.90;2.00;;;;;;;8.65;50.91;101218.66;688004;28;1198;-83
2022/12/28 00:00:38;;;;;;;4.87;1.90;;;;;;;8.63;50.70;101226.41;688191;28;1136;-82
2022/12/28 00:01:08;;;;;;;4.90;1.97;;;;;;;8.72;50.77;101230.25;688254;28;866;-83
2022/12/28 00:01:31;;;;;;;4.30;2.00;;;;;;;8.58;50.95;101201.88;688209;28;965;-82
2022/12/28 00:01:52;;;;;;;5.25;2.30;;;;;;;8.62;50.86;101210.72;688154;28;928;-83
2022/12/28 00:02:12;;;;;;;5.57;2.30;;;;;;;8.69;50.99;101219.69;685307;28;1013;-82
2022/12/28 00:02:46;;;;;;;4.80;2.40;;;;;;;8.52;50.95;101203.31;688048;28;1150;-82
2022/12/28 00:03:07;;;;;;;3.97;2.20;;;;;;;8.55;51.34;101212.16;693700;28;1244;-83
2022/12/28 00:03:27;;;;;;;3.40;2.08;;;;;;;8.47;51.75;101219.59;688203;28;1081;-82
2022/12/28 00:03:49;;;;;;;3.33;2.00;;;;;;;8.55;51.18;101221.66;682790;28;1196;-82
2022/12/28 00:04:14;;;;;;;2.28;2.05;;;;;;;8.60;51.33;101239.25;682847;29;1517;-82
2022/12/28 00:04:34;;;;;;;2.50;1.90;;;;;;;8.50;51.05;101213.66;682818;29;1093;-82
2022/12/28 00:04:55;;;;;;;3.53;1.90;;;;;;;8.48;51.32;101203.19;682876;28;1219;-82
2022/12/28 00:05:18;;;;;;;3.70;1.90;;;;;;;8.63;51.07;101209.91;685398;28;1087;-83
2022/12/28 00:05:39;;;;;;;4.78;2.10;;;;;;;8.54;51.42;101207.75;688123;28;993;-83
2022/12/28 00:06:00;;;;;;;4.83;2.13;;;;;;;8.45;51.59;101194.34;691088;28;662;-83
2022/12/28 00:06:23;;;;;;;4.43;2.20;;;;;;;8.65;51.36;101216.06;688034;28;1385;-82
2022/12/28 00:06:44;;;;;;;4.10;2.10;;;;;;;8.64;50.91;101206.47;688054;28;1112;-83
2022/12/28 00:07:04;;;;;;;3.95;1.90;;;;;;;8.80;50.80;101210.63;688300;28;1265;-83
2022/12/28 00:07:25;;;;;;;3.83;1.80;;;;;;;8.73;51.02;101203.38;690820;28;1049;-82
2022/12/28 00:07:46;;;;;;;3.67;2.00;;;;;;;8.79;50.52;101200.16;688126;28;1261;-83
2022/12/28 00:08:09;;;;;;;3.70;2.03;;;;;;;8.81;50.55;101198.50;685448;28;1261;-83
2022/12/28 00:08:30;;;;;;;4.22;2.20;;;;;;;8.70;50.73;101183.31;685495;28;1088;-82
2022/12/28 00:08:53;;;;;;;3.33;2.13;;;;;;;8.73;50.52;101196.44;685565;28;1140;-82
2022/12/28 00:09:13;;;;;;;3.45;2.20;;;;;;;8.74;50.70;101195.63;685485;28;988;-82
2022/12/28 00:09:34;;;;;;;4.20;2.40;;;;;;;8.81;50.90;101211.50;683844;28;1043;-82
2022/12/28 00:09:54;;;;;;;3.90;2.20;;;;;;;8.73;50.80;101201.66;688629;28;922;-82
2022/12/28 00:10:15;;;;;;;3.58;2.03;;;;;;;8.79;50.88;101189.75;690760;28;1421;-82
2022/12/28 00:10:35;;;;;;;3.30;1.90;;;;;;;8.63;50.88;101200.41;688224;28;1025;-83
2022/12/28 00:11:26;;;;;;;5.75;2.20;;;;;;;8.66;50.89;101193.53;688553;28;1164;-83
2022/12/28 00:11:54;;;;;;;4.38;2.20;;;;;;;8.78;50.99;101196.66;691359;28;1240;-83
2022/12/28 00:12:14;;;;;;;4.80;2.10;;;;;;;8.67;50.89;101191.00;693860;28;993;-83
2022/12/28 00:12:35;;;;;;;4.40;2.00;;;;;;;8.74;50.83;101185.22;694206;28;1246;-82
2022/12/28 00:12:55;;;;;;;4.80;2.10;;;;;;;8.68;50.82;101191.88;688725;28;1210;-82
2022/12/28 00:13:16;;;;;;;5.07;2.30;;;;;;;8.66;51.15;101177.94;688696;28;1042;-82
2022/12/28 00:13:36;;;;;;;5.50;2.55;;;;;;;8.75;50.80;101193.94;686057;28;1033;-82
2022/12/28 00:13:59;;;;;;;3.83;2.58;;;;;;;8.77;50.65;101189.66;686093;28;1279;-82
2022/12/28 00:14:20;;;;;;;4.32;2.50;;;;;;;8.66;50.89;101189.22;688675;28;1075;-83
2022/12/28 00:14:40;;;;;;;3.67;2.40;;;;;;;8.66;50.74;101193.53;688601;28;1174;-82
2022/12/28 00:15:01;;;;;;;7.27;2.60;;;;;;;8.75;51.05;101205.25;688720;28;1229;-82
2022/12/28 00:15:21;;;;;;;7.10;2.70;;;;;;;8.76;50.79;101196.59;688605;28;1969;-83
2022/12/28 00:15:42;;;;;;;7.05;2.50;;;;;;;8.73;50.76;101193.84;688799;28;1211;-82
2022/12/28 00:16:27;;;;;;;2.93;2.30;;;;;;;8.74;50.62;101177.41;685976;28;1121;-82
2022/12/28 00:16:47;;;;;;;4.75;2.30;;;;;;;8.77;50.72;101187.97;689107;28;1231;-83
2022/12/28 00:17:08;;;;;;;5.73;2.50;;;;;;;8.79;51.18;101190.66;692184;28;968;-82
2022/12/28 00:17:29;;;;;;;5.45;2.40;;;;;;;8.73;50.69;101170.44;694998;28;1211;-82
2022/12/28 00:17:56;;;;;;;4.25;2.30;;;;;;;8.75;50.99;101184.41;694137;28;1292;-82
2022/12/28 00:18:17;;;;;;;4.78;2.15;;;;;;;8.74;51.02;101182.63;688570;28;1060;-81
2022/12/28 00:18:37;;;;;;;5.50;2.03;;;;;;;8.77;50.77;101187.97;688738;28;1190;-83
2022/12/28 00:19:00;;;;;;;4.33;2.00;;;;;;;8.72;50.65;101173.00;688737;28;1120;-83
2022/12/28 00:19:20;;;;;;;5.57;2.20;;;;;;;8.77;50.59;101177.56;688579;28;1254;-82
2022/12/28 00:19:41;;;;;;;4.82;2.20;;;;;;;8.77;50.86;101179.25;685990;28;856;-82
2022/12/28 00:20:02;;;;;;;4.88;2.20;;;;;;;8.75;50.75;101183.50;686069;28;1194;-83
2022/12/28 00:20:23;;;;;;;3.35;2.10;;;;;;;8.76;50.96;101170.56;686096;28;1020;-83
2022/12/28 00:20:43;;;;;;;3.60;2.10;;;;;;;8.73;51.19;101170.44;685968;28;1242;-82
2022/12/28 00:21:04;;;;;;;3.33;2.00;;;;;;;8.80;51.04;101184.59;686076;28;1035;-82
2022/12/28 00:21:26;;;;;;;2.80;2.00;;;;;;;8.76;50.76;101186.19;683317;28;1153;-83
2022/12/28 00:21:46;;;;;;;4.65;2.25;;;;;;;8.69;50.90;101173.75;683352;28;1228;-82
2022/12/28 00:22:07;;;;;;;4.80;2.30;;;;;;;8.70;51.01;101172.91;688682;28;1185;-82
2022/12/28 00:22:27;;;;;;;7.18;2.53;;;;;;;8.73;50.87;101170.44;688648;28;1145;-82
2022/12/28 00:22:48;;;;;;;5.82;2.38;;;;;;;8.74;51.14;101187.81;688655;28;1076;-82
2022/12/28 00:23:09;;;;;;;5.83;2.40;;;;;;;8.70;51.00;101175.53;688741;28;1050;-82
2022/12/28 00:23:30;;;;;;;2.50;2.20;;;;;;;8.77;50.90;101176.66;691381;28;1167;-83
2022/12/28 00:23:52;;;;;;;4.50;2.20;;;;;;;8.72;51.31;101171.25;691310;28;1244;-83
2022/12/28 00:24:20;;;;;;;5.28;2.15;;;;;;;8.79;50.97;101179.34;691350;28;997;-82
2022/12/28 00:24:41;;;;;;;5.63;2.17;;;;;;;8.77;51.04;101167.16;688562;28;1249;-82
2022/12/28 00:25:12;;;;;;;4.30;2.10;;;;;;;8.65;51.27;101184.84;688800;28;1331;-82
2022/12/28 00:25:35;;;;;;;4.72;2.00;;;;;;;8.69;51.13;101173.75;688601;28;1387;-83
2022/12/28 00:26:04;;;;;;;5.50;2.13;;;;;;;8.72;51.36;101179.06;694081;28;1261;-82
2022/12/28 00:26:28;;;;;;;4.75;2.70;;;;;;;8.73;51.15;101172.16;685989;28;1114;-83
2022/12/28 00:26:49;;;;;;;3.80;2.50;;;;;;;8.75;51.14;101166.22;685724;28;1205;-82
2022/12/28 00:27:10;;;;;;;3.00;2.13;;;;;;;8.74;51.18;101172.19;686047;28;1159;-83
2022/12/28 00:27:30;;;;;;;1.90;1.60;;;;;;;8.74;51.33;101171.34;686049;28;1102;-82
2022/12/28 00:27:52;;;;;;;1.95;1.70;;;;;;;8.81;50.84;101182.88;686140;28;806;-83
2022/12/28 00:28:13;;;;;;;2.00;1.80;;;;;;;8.79;51.14;101174.13;688585;28;1163;-83
2022/12/28 00:28:34;;;;;;;3.03;2.10;;;;;;;8.78;50.88;101168.03;688792;28;1267;-83
2022/12/28 00:28:55;;;;;;;3.55;2.20;;;;;;;8.68;51.36;101158.06;686020;28;1356;-83
2022/12/28 00:29:16;;;;;;;3.97;2.10;;;;;;;8.74;51.16;101164.41;688634;28;1450;-82
2022/12/28 00:29:36;;;;;;;2.95;2.00;;;;;;;8.76;51.22;101169.69;685996;28;1071;-83
2022/12/28 00:29:57;;;;;;;3.53;2.10;;;;;;;8.74;51.24;101167.00;688918;28;763;-83
2022/12/28 00:30:19;;;;;;;4.07;2.38;;;;;;;8.71;50.98;101159.06;688527;28;1220;-83
2022/12/28 00:30:40;;;;;;;5.45;2.40;;;;;;;8.73;50.89;101165.22;691459;28;1151;-83
2022/12/28 00:31:01;;;;;;;3.80;2.30;;;;;;;8.75;51.16;101163.59;688571;28;1112;-83
2022/12/28 00:31:21;;;;;;;4.67;2.20;;;;;;;8.73;51.33;101160.03;683217;28;1233;-82
2022/12/28 00:31:47;;;;;;;4.97;2.50;;;;;;;8.72;51.00;101159.97;688672;28;1269;-82
2022/12/28 00:32:07;;;;;;;4.82;2.50;;;;;;;8.76;51.13;101174.88;688793;28;1118;-83
2022/12/28 00:32:29;;;;;;;4.25;2.40;;;;;;;8.69;51.28;101160.72;688661;28;1080;-82
2022/12/28 00:32:49;;;;;;;4.10;2.20;;;;;;;8.72;51.30;101168.66;691409;28;851;-82
2022/12/28 00:33:10;;;;;;;5.30;2.17;;;;;;;8.70;51.23;101170.31;688564;28;1054;-83
2022/12/28 00:33:31;;;;;;;4.85;2.00;;;;;;;8.74;51.09;101169.59;690827;28;1111;-82
2022/12/28 00:33:52;;;;;;;4.80;2.13;;;;;;;8.74;51.29;101161.78;691408;28;1037;-83
2022/12/28 00:34:13;;;;;;;3.00;2.10;;;;;;;8.71;51.19;101148.66;694058;28;1214;-83
2022/12/28 00:34:34;;;;;;;3.55;2.20;;;;;;;8.78;51.18;101168.03;691352;28;1147;-82
2022/12/28 00:34:55;;;;;;;3.60;2.00;;;;;;;8.75;51.27;101161.00;683388;29;1330;-82
2022/12/28 00:35:15;;;;;;;4.00;2.17;;;;;;;8.74;51.31;101151.38;683217;29;1910;-82
2022/12/28 00:35:36;;;;;;;3.38;2.05;;;;;;;8.73;51.22;101162.63;685989;28;1110;-83
2022/12/28 00:35:58;;;;;;;4.78;2.45;;;;;;;8.71;51.14;101153.88;686042;28;869;-82
2022/12/28 00:36:19;;;;;;;6.13;2.30;;;;;;;8.71;51.06;101165.97;688550;28;1204;-82
2022/12/28 00:36:41;;;;;;;5.82;2.30;;;;;;;8.75;51.21;101163.59;685834;28;1098;-82
2022/12/28 00:37:03;;;;;;;4.00;2.20;;;;;;;8.73;51.10;101149.63;688567;28;1128;-83
2022/12/28 00:37:32;;;;;;;4.00;2.20;;;;;;;8.76;50.91;101154.06;688757;28;1004;-82
2022/12/28 00:37:53;;;;;;;3.50;2.20;;;;;;;8.73;51.01;101147.00;691292;28;1442;-83
2022/12/28 00:38:14;;;;;;;3.43;2.10;;;;;;;8.72;51.09;101155.66;685902;28;1221;-82
2022/12/28 00:38:37;;;;;;;3.45;2.17;;;;;;;8.83;51.08;101163.03;685977;28;1194;-83
2022/12/28 00:38:59;;;;;;;4.15;1.95;;;;;;;8.83;50.80;101165.63;686052;28;913;-83
2022/12/28 00:39:20;;;;;;;3.63;1.92;;;;;;;8.88;51.20;101187.50;691344;28;1074;-83
2022/12/28 00:39:41;;;;;;;4.43;2.00;;;;;;;8.77;51.24;101154.13;688562;28;1168;-82
2022/12/28 00:40:02;;;;;;;3.97;2.00;;;;;;;8.73;51.07;101151.34;685987;28;1036;-82
2022/12/28 00:40:23;;;;;;;4.68;2.17;;;;;;;8.81;51.23;101156.84;691276;28;1384;-82
2022/12/28 00:40:44;;;;;;;3.60;2.20;;;;;;;8.84;51.07;101164.81;688841;28;1114;-82
2022/12/28 00:41:06;;;;;;;2.92;2.08;;;;;;;8.86;50.74;101155.34;688616;28;1180;-82
2022/12/28 00:41:26;;;;;;;3.68;2.44;;;;;;;8.82;50.95;101148.22;688620;28;1197;-82
2022/12/28 00:41:47;;;;;;;4.67;2.40;;;;;;;8.79;51.05;101179.34;688590;28;1208;-83
2022/12/28 00:42:08;;;;;;;5.47;2.58;;;;;;;8.66;51.34;101152.78;688679;28;1172;-82
2022/12/28 00:42:31;;;;;;;4.72;2.22;;;;;;;8.65;51.30;101165.75;686043;28;1056;-82
2022/12/28 00:42:51;;;;;;;4.13;2.30;;;;;;;8.71;51.40;101153.88;685960;28;1211;-82
2022/12/28 00:43:12;;;;;;;3.20;2.20;;;;;;;8.70;51.24;101152.09;685863;28;1249;-83
2022/12/28 00:43:32;;;;;;;4.20;2.25;;;;;;;8.69;51.33;101152.94;688646;28;1264;-83
2022/12/28 00:43:53;;;;;;;3.70;2.10;;;;;;;8.76;51.45;101146.25;685987;28;1328;-83
2022/12/28 00:44:14;;;;;;;5.20;2.20;;;;;;;8.82;50.90;101153.41;688662;28;1152;-83
2022/12/28 00:44:34;;;;;;;4.55;2.20;;;;;;;8.99;50.99;101157.63;685958;28;1100;-83
2022/12/28 00:44:55;;;;;;;5.38;2.25;;;;;;;8.98;50.50;101155.81;686079;28;1205;-82
2022/12/28 00:45:16;;;;;;;3.70;2.40;;;;;;;8.92;50.57;101145.19;691328;28;1068;-82
2022/12/28 00:45:38;;;;;;;3.75;2.38;;;;;;;8.97;50.95;101159.25;691300;28;996;-83
2022/12/28 00:45:58;;;;;;;3.83;2.30;;;;;;;8.98;50.96;101161.03;685924;28;1251;-82
2022/12/28 00:46:19;;;;;;;4.20;2.33;;;;;;;8.93;50.69;101139.16;685921;28;1253;-82
2022/12/28 00:46:40;;;;;;;4.07;2.27;;;;;;;9.00;50.78;101149.00;683069;28;1121;-83
2022/12/28 00:47:01;;;;;;;3.40;2.10;;;;;;;8.97;50.53;101154.06;683418;29;761;-83
2022/12/28 00:47:21;;;;;;;4.78;2.20;;;;;;;8.96;50.51;101144.47;685899;28;1098;-83
2022/12/28 00:47:42;;;;;;;4.10;2.20;;;;;;;8.99;50.96;101152.44;685941;28;1123;-82
2022/12/28 00:48:03;;;;;;;4.78;2.40;;;;;;;8.91;50.89;101138.22;683363;28;1091;-83
2022/12/28 00:48:25;;;;;;;3.60;2.35;;;;;;;8.91;51.16;101139.06;683215;28;1090;-83
2022/12/28 00:48:45;;;;;;;4.15;2.20;;;;;;;8.93;50.67;101144.34;683213;29;1203;-83
2022/12/28 00:49:06;;;;;;;4.93;2.50;;;;;;;8.97;50.68;101138.44;683399;29;1164;-82
2022/12/28 00:49:27;;;;;;;5.13;2.45;;;;;;;8.97;50.90;101135.81;688594;28;1264;-83
2022/12/28 00:49:47;;;;;;;6.13;2.80;;;;;;;8.94;50.88;101148.72;688621;28;1089;-83
2022/12/28 00:50:08;;;;;;;5.25;2.42;;;;;;;8.90;51.19;101139.00;688706;28;1154;-82
2022/12/28 00:50:30;;;;;;;6.47;2.60;;;;;;;8.97;50.91;101154.06;688703;28;1260;-83
2022/12/28 00:50:51;;;;;;;5.85;2.60;;;;;;;8.98;51.07;101148.00;685951;28;1175;-82
2022/12/28 00:51:15;;;;;;;5.15;2.60;;;;;;;9.02;51.01;101165.56;688656;28;1102;-82
2022/12/28 00:51:36;;;;;;;3.75;2.40;;;;;;;9.00;51.13;101143.78;685862;28;1102;-82
2022/12/28 00:51:56;;;;;;;3.05;2.20;;;;;;;8.98;51.08;101144.53;688698;28;813;-82
2022/12/28 00:52:18;;;;;;;3.17;2.28;;;;;;;8.88;51.26;101143.28;691361;28;961;-82
2022/12/28 00:52:39;;;;;;;2.90;2.30;;;;;;;8.96;51.11;101133.19;691396;28;1209;-83
2022/12/28 00:52:59;;;;;;;4.25;2.20;;;;;;;8.98;50.97;101145.41;688668;28;1179;-83
2022/12/28 00:53:20;;;;;;;4.00;2.38;;;;;;;9.02;51.10;101142.13;683223;28;1320;-83
2022/12/28 00:53:41;;;;;;;6.40;2.50;;;;;;;9.07;51.08;101151.84;683338;28;1013;-82
2022/12/28 00:54:01;;;;;;;5.25;2.60;;;;;;;9.08;50.92;101143.22;688797;28;732;-82
2022/12/28 00:54:22;;;;;;;5.25;2.50;;;;;;;9.13;50.73;101150.38;688458;28;1314;-83
2022/12/28 00:54:43;;;;;;;3.13;2.08;;;;;;;9.04;50.91;101142.19;683295;29;1196;-82
2022/12/28 00:55:04;;;;;;;3.90;2.20;;;;;;;8.98;51.09;101144.53;684650;28;1120;-83
2022/12/28 00:55:24;;;;;;;4.43;2.40;;;;;;;9.08;51.03;101146.69;688554;28;1961;-83
2022/12/28 00:55:45;;;;;;;4.35;2.50;;;;;;;9.10;50.73;101146.75;688438;28;1281;-82
2022/12/28 00:56:14;;;;;;;3.78;2.08;;;;;;;9.00;50.63;101128.16;685938;28;1360;-83
2022/12/28 00:56:35;;;;;;;3.47;2.00;;;;;;;9.02;50.85;101131.72;688562;28;1268;-83
2022/12/28 00:56:55;;;;;;;2.72;2.00;;;;;;;9.12;50.68;101134.69;688493;28;1287;-83
2022/12/28 00:57:16;;;;;;;2.83;2.20;;;;;;;9.14;50.60;101136.53;685987;28;1080;-83
2022/12/28 00:57:39;;;;;;;2.63;2.10;;;;;;;9.19;50.47;101139.31;685874;28;1157;-83
2022/12/28 00:58:02;;;;;;;2.50;1.98;;;;;;;9.24;50.72;101150.81;683269;28;1191;-82
2022/12/28 00:58:22;;;;;;;3.55;2.10;;;;;;;9.24;50.55;101144.69;685993;28;1010;-82
2022/12/28 00:58:44;;;;;;;3.47;2.03;;;;;;;9.21;50.42;101141.97;688646;28;996;-82
2022/12/28 00:59:04;;;;;;;4.22;2.10;;;;;;;9.14;50.60;101131.31;686068;28;1175;-83
2022/12/28 00:59:25;;;;;;;3.38;2.00;;;;;;;9.17;50.88;101135.75;685991;28;1000;-82
2022/12/28 00:59:46;;;;;;;3.95;2.00;;;;;;;9.19;50.72;101139.31;685867;28;1532;-83
2022/12/28 01:00:07;;;;;;;3.15;1.90;;;;;;;9.25;50.87;101133.44;685860;28;1049;-82
2022/12/28 01:00:29;;;;;;;3.47;2.03;;;;;;;9.25;50.46;101138.66;685976;28;909;-82
2022/12/28 01:00:51;;;;;;;3.80;2.20;;;;;;;9.24;50.23;101136.88;691176;28;1381;-83
2022/12/28 01:01:21;;;;;;;3.78;2.20;;;;;;;9.32;50.65;101146.78;688510;28;1183;-82
2022/12/28 01:01:44;;;;;;;3.88;2.20;;;;;;;9.28;50.46;101139.66;685828;28;1125;-82
2022/12/28 01:02:05;;;;;;;5.25;2.50;;;;;;;9.26;50.37;101130.91;688591;28;1011;-82
2022/12/28 01:02:25;;;;;;;5.75;2.65;;;;;;;9.26;50.72;101128.31;691322;28;1332;-83
2022/12/28 01:02:46;;;;;;;3.95;2.33;;;;;;;9.25;50.72;101129.13;688541;28;1156;-82
2022/12/28 01:03:06;;;;;;;3.30;2.00;;;;;;;9.30;50.54;101135.41;686006;28;977;-83
2022/12/28 01:03:27;;;;;;;4.38;2.00;;;;;;;9.25;50.74;101126.53;686058;28;1185;-82
2022/12/28 01:03:48;;;;;;;5.80;2.15;;;;;;;9.28;50.80;101137.06;688576;28;1071;-82
2022/12/28 01:04:08;;;;;;;7.20;2.20;;;;;;;9.30;50.66;101143.22;686012;28;1010;-82
2022/12/28 01:04:29;;;;;;;6.63;2.30;;;;;;;9.41;50.36;101145.34;685980;28;1163;-83
2022/12/28 01:04:49;;;;;;;5.75;2.30;;;;;;;9.28;50.41;101129.25;691276;28;1303;-82
2022/12/28 01:05:10;;;;;;;4.70;2.13;;;;;;;9.36;50.27;101137.38;691344;28;1031;-82
2022/12/28 01:05:30;;;;;;;4.75;2.10;;;;;;;9.38;50.45;101142.63;688625;28;1173;-82
2022/12/28 01:05:51;;;;;;;4.77;1.90;;;;;;;9.40;50.46;101148.78;685869;28;1202;-83
2022/12/28 01:06:18;;;;;;;3.45;1.77;;;;;;;9.42;50.54;101152.34;691255;28;989;-82
2022/12/28 01:06:38;;;;;;;2.45;1.85;;;;;;;9.41;50.23;101142.75;688466;28;1126;-82
2022/12/28 01:06:59;;;;;;;2.92;1.90;;;;;;;9.43;50.42;101139.38;685985;28;744;-83
2022/12/28 01:07:20;;;;;;;3.70;2.00;;;;;;;9.36;50.38;101147.78;688513;28;1420;-82
2022/12/28 01:07:40;;;;;;;3.65;2.10;;;;;;;9.33;50.63;101121.59;688504;28;1153;-82
2022/12/28 01:08:01;;;;;;;3.88;2.10;;;;;;;9.40;50.58;101127.97;691381;28;849;-82
2022/12/28 01:08:22;;;;;;;3.70;2.05;;;;;;;9.43;50.63;101139.38;688615;28;1118;-83
2022/12/28 01:08:43;;;;;;;4.30;1.90;;;;;;;9.44;50.62;101150.69;685819;28;1258;-83
2022/12/28 01:09:04;;;;;;;3.72;1.90;;;;;;;9.42;50.67;101147.13;688569;28;1171;-81
2022/12/28 01:09:25;;;;;;;3.70;2.10;;;;;;;9.45;50.48;101136.81;688634;28;982;-82
2022/12/28 01:09:46;;;;;;;3.63;2.20;;;;;;;9.42;50.83;101139.31;688518;28;1266;-83
2022/12/28 01:10:07;;;;;;;3.30;2.20;;;;;;;9.34;50.71;101125.97;685993;28;1001;-83
2022/12/28 01:10:29;;;;;;;3.78;2.20;;;;;;;9.36;51.00;101132.16;688430;28;1381;-82
2022/12/28 01:10:50;;;;;;;4.90;2.00;;;;;;;9.32;51.13;101131.16;685854;28;1366;-83
2022/12/28 01:11:19;;;;;;;4.53;1.90;;;;;;;9.28;50.90;101129.25;685852;28;1222;-83
2022/12/28 01:11:40;;;;;;;3.30;1.90;;;;;;;9.29;51.30;101133.63;685680;28;1259;-83
2022/12/28 01:12:00;;;;;;;2.92;2.10;;;;;;;9.24;51.60;101127.38;683333;28;1040;-83
2022/12/28 01:12:21;;;;;;;2.72;2.10;;;;;;;9.25;51.80;101123.94;683129;28;1097;-82
2022/12/28 01:12:43;;;;;;;3.28;2.20;;;;;;;9.31;51.56;101147.63;683275;28;998;-82
2022/12/28 01:13:04;;;;;;;3.60;2.30;;;;;;;9.30;51.64;101142.34;684827;28;1099;-83
2022/12/28 01:13:25;;;;;;;3.95;2.10;;;;;;;9.37;51.75;101144.34;687082;28;1095;-83
2022/12/28 01:13:47;;;;;;;2.60;1.97;;;;;;;9.28;52.02;101129.25;689005;28;887;-82
2022/12/28 01:14:10;;;;;;;2.67;1.80;;;;;;;9.26;51.83;101130.91;689807;28;1239;-82
2022/12/28 01:14:31;;;;;;;3.67;2.20;;;;;;;9.24;51.80;101129.97;686728;28;1216;-82
2022/12/28 01:14:51;;;;;;;3.28;2.17;;;;;;;9.21;51.87;101126.34;688515;28;989;-82
2022/12/28 01:15:12;;;;;;;3.33;2.40;;;;;;;9.15;52.05;101122.66;691149;28;1930;-83
2022/12/28 01:15:34;;;;;;;3.17;2.30;;;;;;;9.16;52.20;101120.97;691300;28;1303;-83
2022/12/28 01:15:54;;;;;;;3.72;2.13;;;;;;;9.12;52.62;101126.88;691237;28;1223;-82
2022/12/28 01:16:19;;;;;;;3.60;2.20;;;;;;;9.11;52.91;101140.72;688559;28;1081;-83
2022/12/28 01:16:41;;;;;;;4.07;2.28;;;;;;;9.11;52.63;101127.69;683001;28;954;-83
2022/12/28 01:17:02;;;;;;;4.23;2.20;;;;;;;9.13;52.98;101131.25;685887;28;1082;-83
2022/12/28 01:17:24;;;;;;;4.57;2.10;;;;;;;9.08;52.78;101124.97;685897;28;1436;-82
2022/12/28 01:17:45;;;;;;;3.30;1.90;;;;;;;8.96;53.04;101102.81;688512;28;1073;-82
2022/12/28 01:18:05;;;;;;;4.00;2.10;;;;;;;9.02;53.11;101117.78;691245;28;1145;-82
2022/12/28 01:18:26;;;;;;;4.13;2.20;;;;;;;8.95;53.27;101114.06;691417;28;1168;-82
2022/12/28 01:18:47;;;;;;;4.37;2.30;;;;;;;9.04;53.88;101119.63;688409;28;1249;-83
2022/12/28 01:19:12;;;;;;;3.38;2.10;;;;;;;8.97;53.62;101122.81;688567;28;1250;-82
2022/12/28 01:19:32;;;;;;;2.85;2.10;;;;;;;9.02;53.80;101126.50;685860;28;1005;-83
2022/12/28 01:19:53;;;;;;;3.83;2.10;;;;;;;8.94;53.87;101114.91;683299;28;1145;-83
2022/12/28 01:20:14;;;;;;;4.60;2.27;;;;;;;8.91;54.10;101107.84;685796;28;1113;-83
2022/12/28 01:20:38;;;;;;;3.80;2.20;;;;;;;8.86;54.37;101095.47;685905;28;925;-82
2022/12/28 01:20:59;;;;;;;2.30;2.10;;;;;;;8.90;54.10;101102.56;688635;28;878;-82
2022/12/28 01:21:21;;;;;;;2.80;2.17;;;;;;;8.83;54.06;101103.19;685826;28;1085;-82
2022/12/28 01:21:42;;;;;;;3.03;2.20;;;;;;;8.86;54.46;101098.94;685821;28;935;-82
2022/12/28 01:22:03;;;;;;;3.50;2.33;;;;;;;8.92;54.42;101121.75;691354;28;1148;-82
2022/12/28 01:22:23;;;;;;;3.33;2.40;;;;;;;8.80;54.52;101101.34;688546;28;1175;-82
2022/12/28 01:22:44;;;;;;;3.20;2.30;;;;;;;8.79;55.03;101106.47;691248;28;947;-82
2022/12/28 01:23:05;;;;;;;2.38;2.17;;;;;;;8.85;54.98;101110.19;690772;28;1189;-82
2022/12/28 01:23:25;;;;;;;2.10;2.00;;;;;;;8.90;54.80;101115.59;688450;28;1127;-82
2022/12/28 01:23:47;;;;;;;2.10;1.90;;;;;;;8.89;54.73;101111.22;685789;28;1040;-82
2022/12/28 01:24:09;;;;;;;3.00;2.10;;;;;;;8.82;54.78;101097.06;686084;28;1128;-82
2022/12/28 01:24:29;;;;;;;3.67;2.17;;;;;;;8.89;54.88;101129.44;683107;28;1368;-82
2022/12/28 01:24:53;;;;;;;4.07;2.22;;;;;;;8.86;55.16;101113.69;685953;28;846;-82
2022/12/28 01:25:14;;;;;;;4.00;2.20;;;;;;;8.82;55.00;101117.00;685826;28;1096;-82
2022/12/28 01:25:35;;;;;;;2.88;2.03;;;;;;;8.74;55.05;101109.75;685895;28;1096;-83
2022/12/28 01:26:00;;;;;;;2.50;2.10;;;;;;;8.81;55.53;101110.91;685849;28;1201;-83
2022/12/28 01:26:21;;;;;;;3.55;2.00;;;;;;;8.79;55.48;101116.88;688569;28;1100;-82
2022/12/28 01:26:42;;;;;;;4.20;2.00;;;;;;;8.71;55.45;101103.53;682983;28;1098;-83
2022/12/28 01:27:07;;;;;;;3.97;2.00;;;;;;;8.77;55.45;101107.28;685980;28;1213;-82
2022/12/28 01:27:28;;;;;;;3.28;2.10;;;;;;;8.74;55.31;101111.47;688566;28;1099;-82
2022/12/28 01:27:48;;;;;;;3.70;2.20;;;;;;;8.79;55.89;101106.47;685768;28;1148;-82
2022/12/28 01:28:09;;;;;;;3.97;2.38;;;;;;;8.69;55.58;101090.47;685840;28;1031;-82
2022/12/28 01:28:30;;;;;;;3.35;2.22;;;;;;;8.70;55.88;101094.84;683247;29;1077;-82
2022/12/28 01:28:51;;;;;;;2.60;2.20;;;;;;;8.75;55.82;101116.75;685709;28;1348;-82
2022/12/28 01:29:11;;;;;;;2.35;2.10;;;;;;;8.72;55.79;101085.38;688279;28;1157;-83
2022/12/28 01:29:32;;;;;;;2.37;2.00;;;;;;;8.72;55.89;101098.41;691196;28;1158;-82
2022/12/28 01:29:53;;;;;;;3.20;2.10;;;;;;;8.62;55.75;101084.13;685925;28;835;-82
2022/12/28 01:30:13;;;;;;;4.20;2.00;;;;;;;8.71;56.24;101091.41;685838;28;1050;-82
2022/12/28 01:30:34;;;;;;;4.30;1.95;;;;;;;8.65;56.12;101078.16;688559;28;1213;-82
2022/12/28 01:30:55;;;;;;;5.40;2.03;;;;;;;8.68;56.48;101083.50;688571;28;1335;-82
2022/12/28 01:31:17;;;;;;;4.30;2.10;;;;;;;8.64;56.39;101076.38;688486;28;1297;-82
2022/12/28 01:31:38;;;;;;;4.65;2.10;;;;;;;8.63;56.37;101075.50;688419;28;1250;-82
2022/12/28 01:31:59;;;;;;;3.45;2.10;;;;;;;8.60;56.78;101077.94;688558;28;1439;-82
2022/12/28 01:32:19;;;;;;;4.20;2.30;;;;;;;8.59;56.61;101077.88;688439;28;1276;-82
2022/12/28 01:32:41;;;;;;;4.53;2.40;;;;;;;8.57;56.56;101077.81;683157;28;1071;-84
2022/12/28 01:33:01;;;;;;;5.65;2.38;;;;;;;8.62;56.64;101072.84;688594;28;850;-83
2022/12/28 01:33:22;;;;;;;5.35;2.10;;;;;;;8.66;56.87;101082.53;688652;28;1107;-82
2022/12/28 01:33:43;;;;;;;3.30;2.00;;;;;;;8.61;56.65;101073.63;688405;28;1315;-82
2022/12/28 01:34:03;;;;;;;3.05;2.00;;;;;;;8.61;56.98;101071.03;683305;28;1045;-82
2022/12/28 01:34:32;;;;;;;3.43;2.30;;;;;;;8.66;57.22;101082.53;685631;28;1021;-83
2022/12/28 01:34:53;;;;;;;4.00;2.40;;;;;;;8.60;57.20;101069.25;688684;28;913;-83
2022/12/28 01:35:13;;;;;;;3.22;2.40;;;;;;;8.56;57.54;101068.25;691219;28;1914;-82
2022/12/28 01:35:35;;;;;;;3.07;2.27;;;;;;;8.54;57.46;101067.28;691167;28;1354;-82
2022/12/28 01:35:55;;;;;;;3.15;2.10;;;;;;;8.52;57.80;101066.34;691317;28;814;-82
2022/12/28 01:36:44;;;;;;;3.35;2.10;;;;;;;8.65;57.48;101083.34;688537;28;1122;-82
2022/12/28 01:37:04;;;;;;;3.20;2.10;;;;;;;8.55;57.67;101070.78;685768;28;1256;-82
2022/12/28 01:37:25;;;;;;;3.67;2.10;;;;;;;8.57;57.88;101070.03;683065;29;1233;-82
2022/12/28 01:37:46;;;;;;;3.78;2.10;;;;;;;8.60;57.66;101085.75;688346;28;1239;-83
2022/12/28 01:38:06;;;;;;;3.73;2.00;;;;;;;8.67;57.89;101086.94;691252;28;1079;-82
2022/12/28 01:38:27;;;;;;;3.90;2.00;;;;;;;8.62;57.50;101078.91;688125;28;1129;-82
2022/12/28 01:38:52;;;;;;;3.60;1.85;;;;;;;8.67;57.75;101081.72;683036;29;1185;-82
2022/12/28 01:39:12;;;;;;;3.30;1.98;;;;;;;8.68;57.54;101080.00;683059;29;1005;-82
2022/12/28 01:39:33;;;;;;;2.10;1.90;;;;;;;8.64;57.50;101071.19;688513;28;955;-82
2022/12/28 01:39:53;;;;;;;2.35;2.15;;;;;;;8.61;57.52;101065.84;685866;28;1203;-82
2022/12/28 01:40:14;;;;;;;2.30;2.10;;;;;;;8.67;57.28;101079.13;683082;28;1233;-82
2022/12/28 01:40:35;;;;;;;2.90;2.20;;;;;;;8.67;57.11;101068.72;685867;28;1113;-82
2022/12/28 01:40:56;;;;;;;4.32;2.30;;;;;;;8.60;57.49;101071.88;688570;28;1359;-83
2022/12/28 01:41:18;;;;;;;5.22;2.25;;;;;;;8.63;57.63;101059.91;685808;28;1194;-82
2022/12/28 01:41:40;;;;;;;5.38;2.30;;;;;;;8.73;57.32;101070.69;683110;29;1236;-82
2022/12/28 01:42:01;;;;;;;3.88;2.30;;;;;;;8.63;57.63;101059.00;685859;28;1332;-83
2022/12/28 01:42:22;;;;;;;3.40;2.38;;;;;;;8.74;57.35;101070.72;688493;28;1112;-83
2022/12/28 01:42:42;;;;;;;2.80;2.13;;;;;;;8.74;57.47;101068.13;688494;28;1131;-83
2022/12/28 01:43:12;;;;;;;3.63;2.40;;;;;;;8.69;57.27;101058.34;688602;28;1138;-82
2022/12/28 01:43:44;;;;;;;4.50;2.60;;;;;;;8.73;57.88;101060.28;688353;28;1067;-82
2022/12/28 01:44:06;;;;;;;3.80;2.20;;;;;;;8.76;57.87;101070.78;691111;28;1055;-82
2022/12/28 01:44:38;;;;;;;4.55;2.05;;;;;;;8.66;57.67;101046.09;691281;28;1344;-82
2022/12/28 01:45:14;;;;;;;5.10;2.13;;;;;;;8.80;57.56;101058.78;691349;28;827;-82
2022/12/28 01:45:35;;;;;;;2.70;2.00;;;;;;;8.74;57.55;101057.72;691272;28;1087;-82
2022/12/28 01:45:55;;;;;;;2.53;2.00;;;;;;;8.83;57.61;101058.94;688506;28;1238;-82